createdAt,value
2022-08-17T00:00:42.844Z,2.80
2022-08-17T00:03:23.480Z,2.97
2022-08-17T00:05:58.688Z,3.15
2022-08-17T00:08:32.775Z,3.30
2022-08-17T00:11:01.622Z,3.22
2022-08-17T00:13:36.730Z,3.42
2022-08-17T00:16:51.916Z,3.22
2022-08-17T00:19:17.163Z,3.42
2022-08-17T00:22:30.943Z,3.20
2022-08-17T00:24:35.408Z,3.22
2022-08-17T00:27:03.671Z,3.30
2022-08-17T00:29:31.207Z,3.40
2022-08-17T00:31:58.873Z,3.60
2022-08-17T00:34:27.941Z,3.28
2022-08-17T00:36:55.705Z,2.83
2022-08-17T00:39:23.331Z,3.50
2022-08-17T00:41:50.986Z,3.10
2022-08-17T00:44:18.910Z,3.10
2022-08-17T00:46:48.192Z,3.38
2022-08-17T00:49:19.657Z,3.40
2022-08-17T00:52:00.101Z,3.35
2022-08-17T00:54:42.017Z,3.35
2022-08-17T00:57:18.688Z,3.33
2022-08-17T01:00:03.045Z,3.25
2022-08-17T01:02:40.445Z,3.47
2022-08-17T01:05:18.423Z,3.53
2022-08-17T01:07:51.094Z,3.20
2022-08-17T01:10:59.306Z,3.45
2022-08-17T01:13:15.047Z,3.45
2022-08-17T01:15:47.515Z,3.15
2022-08-17T01:18:15.184Z,3.30
2022-08-17T01:20:49.639Z,3.20
2022-08-17T01:23:20.727Z,3.10
2022-08-17T01:26:01.899Z,3.13
2022-08-17T01:28:33.379Z,3.13
2022-08-17T01:31:19.034Z,3.40
2022-08-17T01:33:46.111Z,3.10
2022-08-17T01:36:13.591Z,3.60
2022-08-17T01:38:40.748Z,3.40
2022-08-17T01:41:12.592Z,3.50
2022-08-17T01:43:52.077Z,3.42
2022-08-17T01:46:23.397Z,3.35
2022-08-17T01:48:51.659Z,3.30
2022-08-17T01:51:19.980Z,3.25
2022-08-17T01:53:54.140Z,3.33
2022-08-17T01:56:24.553Z,3.45
2022-08-17T01:58:52.637Z,3.25
2022-08-17T02:01:26.643Z,3.67
2022-08-17T02:04:00.462Z,3.60
2022-08-17T02:06:31.529Z,3.20
2022-08-17T02:09:16.830Z,3.10
2022-08-17T02:11:45.410Z,3.15
2022-08-17T02:14:13.864Z,3.60
2022-08-17T02:16:42.348Z,3.63
2022-08-17T02:19:13.496Z,3.40
2022-08-17T02:21:43.162Z,3.20
2022-08-17T02:24:15.097Z,3.28
2022-08-17T02:26:42.425Z,3.70
2022-08-17T02:29:09.511Z,3.25
2022-08-17T02:31:36.613Z,3.25
2022-08-17T02:34:05.175Z,3.13
2022-08-17T02:36:34.211Z,3.22
2022-08-17T02:39:06.141Z,3.40
2022-08-17T02:41:33.794Z,3.30
2022-08-17T02:44:01.241Z,2.95
2022-08-17T02:46:28.649Z,3.55
2022-08-17T02:48:55.848Z,3.25
2022-08-17T02:51:23.123Z,3.28
2022-08-17T02:53:50.618Z,3.22
2022-08-17T02:56:17.923Z,2.88
2022-08-17T02:58:45.216Z,3.22
2022-08-17T03:01:13.165Z,3.42
2022-08-17T03:03:41.079Z,3.17
2022-08-17T03:06:08.642Z,3.03
2022-08-17T03:08:37.534Z,3.55
2022-08-17T03:11:04.955Z,3.50
2022-08-17T03:13:32.175Z,3.70
2022-08-17T03:15:59.628Z,3.42
2022-08-17T03:18:28.119Z,3.25
2022-08-17T03:20:57.578Z,3.40
2022-08-17T03:23:26.096Z,3.45
2022-08-17T03:25:55.126Z,3.45
2022-08-17T03:28:23.646Z,3.53
2022-08-17T03:30:51.464Z,3.17
2022-08-17T03:33:19.995Z,3.33
2022-08-17T03:35:47.184Z,3.20
2022-08-17T03:38:15.012Z,3.45
2022-08-17T03:40:56.237Z,3.15
2022-08-17T03:43:31.143Z,3.60
2022-08-17T03:46:27.984Z,3.55
2022-08-17T03:49:23.244Z,3.50
2022-08-17T03:52:08.708Z,3.63
2022-08-17T03:54:54.555Z,3.45
2022-08-17T03:57:21.701Z,3.42
2022-08-17T03:59:48.953Z,3.58
2022-08-17T04:02:28.764Z,3.70
2022-08-17T04:04:56.371Z,3.45
2022-08-17T04:07:27.665Z,3.65
2022-08-17T04:09:55.285Z,3.50
2022-08-17T04:12:24.434Z,3.75
2022-08-17T04:14:54.649Z,3.30
2022-08-17T04:17:28.046Z,3.42
2022-08-17T04:19:55.729Z,3.42
2022-08-17T04:22:30.291Z,3.67
2022-08-17T04:24:59.227Z,3.30
2022-08-17T04:27:27.254Z,3.40
2022-08-17T04:29:55.987Z,3.47
2022-08-17T04:33:05.446Z,3.60
2022-08-17T04:35:10.605Z,3.63
2022-08-17T04:37:37.944Z,3.53
2022-08-17T04:40:27.312Z,3.50
2022-08-17T04:43:14.579Z,3.60
2022-08-17T04:45:55.945Z,3.35
2022-08-17T04:48:36.216Z,3.47
2022-08-17T04:51:20.896Z,3.45
2022-08-17T04:53:54.018Z,3.58
2022-08-17T04:56:23.654Z,3.70
2022-08-17T04:58:52.885Z,3.78
2022-08-17T05:01:23.653Z,3.15
2022-08-17T05:03:56.897Z,3.83
2022-08-17T05:06:24.263Z,3.83
2022-08-17T05:08:51.521Z,3.42
2022-08-17T05:11:18.726Z,3.90
2022-08-17T05:13:46.164Z,4.20
2022-08-17T05:16:13.323Z,3.53
2022-08-17T05:18:40.822Z,3.85
2022-08-17T05:21:08.476Z,3.67
2022-08-17T05:23:42.864Z,3.60
2022-08-17T05:26:25.444Z,4.15
2022-08-17T05:29:00.348Z,3.88
2022-08-17T05:31:30.200Z,4.00
2022-08-17T05:33:57.718Z,3.95
2022-08-17T05:36:43.542Z,4.22
2022-08-17T05:39:17.068Z,4.13
2022-08-17T05:41:46.813Z,4.05
2022-08-17T05:44:14.077Z,4.20
2022-08-17T05:46:47.601Z,3.97
2022-08-17T05:49:18.006Z,3.80
2022-08-17T05:52:06.748Z,4.22
2022-08-17T05:54:43.298Z,3.95
2022-08-17T05:57:47.655Z,3.88
2022-08-17T06:00:31.741Z,4.30
2022-08-17T06:03:16.121Z,4.22
2022-08-17T06:05:52.536Z,3.97
2022-08-17T06:08:29.102Z,3.97
2022-08-17T06:11:03.018Z,3.95
2022-08-17T06:13:45.158Z,4.50
2022-08-17T06:16:33.794Z,4.25
2022-08-17T06:19:13.334Z,4.25
2022-08-17T06:21:44.101Z,3.97
2022-08-17T06:24:34.381Z,4.30
2022-08-17T06:27:33.279Z,4.25
2022-08-17T06:30:25.884Z,4.25
2022-08-17T06:32:57.369Z,4.13
2022-08-17T06:35:52.418Z,3.72
2022-08-17T06:39:14.017Z,3.80
2022-08-17T06:41:54.418Z,4.10
2022-08-17T06:44:43.709Z,3.70
2022-08-17T06:47:42.565Z,3.97
2022-08-17T06:50:21.794Z,3.70
2022-08-17T06:53:07.743Z,3.92
2022-08-17T06:55:58.667Z,3.95
2022-08-17T06:58:32.422Z,3.97
2022-08-17T07:01:13.501Z,4.55
2022-08-17T07:03:53.626Z,3.67
2022-08-17T07:06:45.004Z,4.00
2022-08-17T07:09:38.812Z,3.70
2022-08-17T07:12:15.986Z,4.10
2022-08-17T07:14:53.370Z,3.80
2022-08-17T07:17:46.620Z,4.05
2022-08-17T07:20:20.724Z,3.63
2022-08-17T07:23:04.690Z,3.80
2022-08-17T07:25:32.392Z,3.55
2022-08-17T07:28:02.463Z,3.85
2022-08-17T07:30:47.394Z,4.32
2022-08-17T07:33:27.942Z,3.33
2022-08-17T07:35:58.222Z,4.13
2022-08-17T07:38:31.859Z,3.78
2022-08-17T07:41:05.433Z,3.65
2022-08-17T07:43:41.572Z,3.47
2022-08-17T07:46:30.222Z,3.35
2022-08-17T07:49:09.033Z,3.30
2022-08-17T07:51:44.010Z,3.38
2022-08-17T07:54:22.591Z,3.33
2022-08-17T07:56:52.599Z,3.13
2022-08-17T07:59:34.484Z,3.25
2022-08-17T08:02:35.659Z,3.40
2022-08-17T08:05:48.837Z,3.10
2022-08-17T08:08:22.524Z,2.95
2022-08-17T08:11:08.803Z,3.08
2022-08-17T08:13:43.923Z,2.65
2022-08-17T08:16:31.658Z,2.97
2022-08-17T08:19:01.813Z,2.90
2022-08-17T08:21:35.772Z,2.80
2022-08-17T08:24:41.671Z,2.40
2022-08-17T08:27:29.923Z,2.53
2022-08-17T08:30:15.849Z,2.53
2022-08-17T08:33:02.354Z,2.70
2022-08-17T08:35:35.129Z,2.47
2022-08-17T08:38:21.987Z,2.30
2022-08-17T08:41:13.871Z,2.50
2022-08-17T08:43:55.887Z,2.60
2022-08-17T08:46:53.499Z,2.55
2022-08-17T08:50:02.746Z,2.40
2022-08-17T08:52:52.463Z,2.40
2022-08-17T08:55:22.447Z,2.40
2022-08-17T08:57:55.771Z,2.70
2022-08-17T09:00:27.107Z,2.60
2022-08-17T09:03:51.680Z,2.63
2022-08-17T09:06:51.347Z,2.75
2022-08-17T09:09:42.989Z,2.60
2022-08-17T09:12:36.865Z,2.28
2022-08-17T09:15:27.790Z,2.45
2022-08-17T09:19:00.906Z,2.60
2022-08-17T09:21:19.091Z,2.50
2022-08-17T09:24:00.000Z,2.45
2022-08-17T09:26:59.471Z,2.63
2022-08-17T09:29:35.298Z,2.92
2022-08-17T09:32:41.685Z,2.38
2022-08-17T09:35:25.165Z,2.28
2022-08-17T09:38:21.410Z,2.40
2022-08-17T09:40:57.264Z,2.13
2022-08-17T09:43:39.522Z,2.50
2022-08-17T09:46:48.896Z,2.33
2022-08-17T09:49:30.963Z,2.28
2022-08-17T09:52:11.631Z,2.55
2022-08-17T09:54:42.644Z,2.47
2022-08-17T09:57:29.952Z,2.53
2022-08-17T10:00:00.843Z,2.50
2022-08-17T10:02:58.153Z,2.25
2022-08-17T10:05:41.503Z,2.47
2022-08-17T10:08:18.104Z,2.38
2022-08-17T10:11:08.682Z,2.60
2022-08-17T10:14:24.083Z,2.50
2022-08-17T10:17:04.746Z,2.47
2022-08-17T10:19:53.165Z,2.50
2022-08-17T10:23:04.604Z,2.10
2022-08-17T10:25:55.437Z,2.50
2022-08-17T10:28:29.739Z,2.10
2022-08-17T10:31:30.784Z,2.20
2022-08-17T10:34:19.061Z,2.33
2022-08-17T10:37:10.419Z,2.40
2022-08-17T10:39:52.001Z,2.35
2022-08-17T10:42:45.890Z,2.40
2022-08-17T10:45:18.711Z,2.28
2022-08-17T10:48:36.999Z,2.40
2022-08-17T10:51:09.125Z,2.30
2022-08-17T10:53:36.206Z,2.42
2022-08-17T10:56:14.684Z,2.30
2022-08-17T10:58:55.998Z,2.20
2022-08-17T11:01:29.543Z,2.00
2022-08-17T11:04:03.684Z,2.13
2022-08-17T11:06:51.560Z,2.50
2022-08-17T11:09:55.725Z,2.15
2022-08-17T11:13:09.127Z,2.10
2022-08-17T11:16:09.014Z,2.10
2022-08-17T11:18:54.105Z,2.08
2022-08-17T11:21:45.197Z,2.30
2022-08-17T11:24:12.315Z,2.60
2022-08-17T11:26:47.691Z,2.17
2022-08-17T11:29:29.358Z,2.38
2022-08-17T11:32:13.825Z,2.33
2022-08-17T11:34:44.671Z,2.40
2022-08-17T11:37:26.454Z,2.38
2022-08-17T11:40:12.997Z,2.50
2022-08-17T11:43:05.255Z,2.10
2022-08-17T11:45:47.366Z,2.10
2022-08-17T11:48:54.654Z,2.30
2022-08-17T11:51:33.923Z,2.00
2022-08-17T11:56:59.261Z,2.13
2022-08-17T11:59:42.248Z,2.22
2022-08-17T12:02:38.850Z,2.22
2022-08-17T12:05:12.517Z,2.40
2022-08-17T12:08:04.242Z,2.25
2022-08-17T12:10:34.447Z,2.22
2022-08-17T12:13:10.571Z,2.20
2022-08-17T12:15:49.417Z,2.10
2022-08-17T12:18:20.888Z,2.00
2022-08-17T12:21:01.196Z,2.15
2022-08-17T12:23:41.971Z,2.17
2022-08-17T12:26:25.213Z,2.30
2022-08-17T12:29:01.152Z,2.20
2022-08-17T12:31:34.663Z,1.98
2022-08-17T12:34:05.791Z,2.00
2022-08-17T12:36:33.889Z,2.30
2022-08-17T12:39:13.860Z,2.10
2022-08-17T12:41:50.247Z,2.13
2022-08-17T12:44:23.417Z,2.10
2022-08-17T12:47:01.824Z,2.30
2022-08-17T12:49:35.706Z,2.28
2022-08-17T12:52:09.273Z,2.30
2022-08-17T12:54:59.460Z,2.08
2022-08-17T12:57:38.671Z,2.05
2022-08-17T13:00:17.974Z,2.20
2022-08-17T13:03:03.444Z,2.30
2022-08-17T13:05:36.228Z,2.00
2022-08-17T13:08:16.961Z,2.47
2022-08-17T13:10:54.126Z,2.00
2022-08-17T13:13:26.417Z,2.00
2022-08-17T13:16:00.338Z,2.13
2022-08-17T13:18:36.370Z,2.15
2022-08-17T13:21:03.856Z,2.47
2022-08-17T13:23:32.376Z,2.30
2022-08-17T13:26:15.993Z,2.13
2022-08-17T13:28:51.803Z,2.10
2022-08-17T13:31:30.497Z,2.10
2022-08-17T13:34:16.286Z,2.00
2022-08-17T13:36:47.888Z,2.00
2022-08-17T13:39:19.477Z,2.30
2022-08-17T13:41:48.038Z,1.95
2022-08-17T13:44:37.189Z,2.40
2022-08-17T13:47:15.105Z,1.90
2022-08-17T13:49:48.750Z,1.98
2022-08-17T13:52:32.008Z,2.00
2022-08-17T13:55:04.968Z,2.10
2022-08-17T13:57:32.375Z,1.80
2022-08-17T14:00:17.711Z,2.17
2022-08-17T14:02:44.860Z,2.10
2022-08-17T14:05:12.044Z,2.00
2022-08-17T14:07:40.753Z,2.00
2022-08-17T14:10:17.474Z,2.03
2022-08-17T14:12:45.771Z,2.67
2022-08-17T14:15:16.261Z,2.08
2022-08-17T14:17:43.864Z,2.15
2022-08-17T14:20:13.112Z,2.13
2022-08-17T14:22:45.222Z,2.10
2022-08-17T14:25:15.624Z,2.17
2022-08-17T14:27:52.751Z,2.40
2022-08-17T14:30:28.976Z,2.10
2022-08-17T14:33:00.651Z,2.10
2022-08-17T14:35:29.238Z,2.30
2022-08-17T14:37:57.195Z,2.45
2022-08-17T14:40:25.555Z,2.13
2022-08-17T14:42:55.295Z,2.22
2022-08-17T14:45:27.030Z,2.35
2022-08-17T14:48:00.208Z,2.20
2022-08-17T14:50:27.358Z,2.05
2022-08-17T14:52:56.330Z,2.45
2022-08-17T14:55:25.558Z,2.38
2022-08-17T14:57:52.812Z,2.45
2022-08-17T15:00:20.240Z,2.15
2022-08-17T15:02:54.332Z,2.05
2022-08-17T15:05:24.702Z,2.30
2022-08-17T15:07:53.535Z,2.50
2022-08-17T15:10:25.601Z,2.10
2022-08-17T15:12:53.090Z,2.33
2022-08-17T15:15:21.127Z,2.20
2022-08-17T15:17:48.346Z,2.40
2022-08-17T15:20:19.330Z,2.42
2022-08-17T15:22:55.564Z,2.20
2022-08-17T15:25:26.669Z,2.35
2022-08-17T15:27:55.593Z,2.38
2022-08-17T15:30:23.520Z,2.40
2022-08-17T15:32:54.962Z,2.22
2022-08-17T15:35:28.213Z,2.20
2022-08-17T15:38:11.533Z,2.10
2022-08-17T15:40:43.930Z,2.63
2022-08-17T15:43:21.007Z,2.40
2022-08-17T15:46:02.407Z,2.20
2022-08-17T15:48:43.201Z,2.70
2022-08-17T15:51:15.619Z,2.25
2022-08-17T15:53:48.019Z,2.42
2022-08-17T15:56:16.444Z,2.28
2022-08-17T15:58:45.208Z,2.20
2022-08-17T16:01:18.715Z,2.42
2022-08-17T16:04:06.837Z,2.45
2022-08-17T16:06:34.868Z,2.30
2022-08-17T16:09:02.110Z,2.47
2022-08-17T16:11:29.362Z,2.38
2022-08-17T16:13:56.576Z,2.35
2022-08-17T16:16:24.308Z,2.63
2022-08-17T16:18:54.523Z,2.47
2022-08-17T16:21:26.242Z,2.70
2022-08-17T16:24:06.883Z,2.50
2022-08-17T16:26:41.082Z,2.45
2022-08-17T16:29:09.089Z,2.80
2022-08-17T16:31:37.668Z,2.47
2022-08-17T16:34:17.205Z,2.70
2022-08-17T16:36:55.127Z,2.35
2022-08-17T16:39:29.449Z,2.40
2022-08-17T16:41:57.822Z,2.55
2022-08-17T16:44:31.852Z,2.10
2022-08-17T16:47:01.201Z,2.53
2022-08-17T16:49:36.586Z,2.72
2022-08-17T16:52:07.592Z,2.53
2022-08-17T16:54:36.984Z,2.30
2022-08-17T16:57:05.387Z,2.22
2022-08-17T16:59:41.854Z,2.75
2022-08-17T17:02:14.861Z,2.40
2022-08-17T17:05:14.160Z,2.25
2022-08-17T17:07:53.796Z,2.40
2022-08-17T17:10:24.558Z,2.60
2022-08-17T17:13:03.059Z,2.40
2022-08-17T17:16:18.428Z,2.28
2022-08-17T17:19:00.511Z,2.80
2022-08-17T17:21:39.177Z,2.33
2022-08-17T17:24:14.121Z,2.58
2022-08-17T17:26:44.465Z,2.50
2022-08-17T17:29:22.834Z,2.70
2022-08-17T17:32:32.483Z,2.42
2022-08-17T17:35:07.053Z,2.65
2022-08-17T17:37:35.676Z,2.50
2022-08-17T17:40:31.900Z,2.60
2022-08-17T17:43:14.534Z,2.47
2022-08-17T17:46:07.693Z,2.67
2022-08-17T17:48:48.246Z,2.58
2022-08-17T17:51:45.631Z,2.78
2022-08-17T17:54:52.931Z,2.38
2022-08-17T17:57:26.670Z,2.80
2022-08-17T18:00:23.728Z,2.55
2022-08-17T18:03:08.584Z,2.80
2022-08-17T18:05:51.957Z,2.78
2022-08-17T18:08:32.421Z,2.38
2022-08-17T18:11:24.352Z,2.40
2022-08-17T18:14:07.651Z,2.65
2022-08-17T18:16:35.235Z,2.50
2022-08-17T18:19:02.458Z,2.80
2022-08-17T18:21:37.984Z,2.60
2022-08-17T18:24:07.749Z,2.65
2022-08-17T18:26:35.419Z,2.67
2022-08-17T18:29:21.123Z,2.75
2022-08-17T18:31:48.575Z,2.58
2022-08-17T18:34:45.837Z,2.53
2022-08-17T18:37:13.293Z,2.60
2022-08-17T18:39:44.244Z,2.95
2022-08-17T18:42:26.356Z,2.55
2022-08-17T18:44:55.510Z,2.70
2022-08-17T18:47:24.629Z,2.70
2022-08-17T18:49:57.818Z,2.60
2022-08-17T18:52:33.141Z,2.50
2022-08-17T18:55:29.347Z,2.60
2022-08-17T18:58:13.052Z,2.55
2022-08-17T19:00:46.216Z,2.60
2022-08-17T19:03:16.250Z,2.70
2022-08-17T19:05:47.373Z,2.67
2022-08-17T19:08:29.308Z,2.88
2022-08-17T19:10:56.402Z,2.65
2022-08-17T19:13:35.478Z,2.88
2022-08-17T19:16:14.708Z,2.80
2022-08-17T19:18:59.178Z,2.58
2022-08-17T19:21:41.632Z,2.80
2022-08-17T19:24:19.904Z,2.80
2022-08-17T19:26:56.555Z,3.10
2022-08-17T19:29:40.419Z,3.10
2022-08-17T19:32:09.865Z,2.88
2022-08-17T19:34:39.424Z,3.00
2022-08-17T19:37:15.732Z,3.08
2022-08-17T19:40:09.567Z,3.28
2022-08-17T19:42:39.363Z,2.80
2022-08-17T19:45:09.346Z,2.88
2022-08-17T19:48:02.586Z,3.15
2022-08-17T19:51:11.772Z,3.08
2022-08-17T19:54:08.043Z,3.00
2022-08-17T19:56:55.619Z,3.05
2022-08-17T19:59:50.488Z,3.08
2022-08-17T20:02:32.685Z,2.92
2022-08-17T20:05:05.754Z,3.13
2022-08-17T20:08:01.433Z,2.83
2022-08-17T20:10:40.715Z,2.90
2022-08-17T20:13:35.447Z,3.00
2022-08-17T20:16:04.410Z,3.33
2022-08-17T20:18:38.706Z,2.90
2022-08-17T20:21:22.405Z,2.95
2022-08-17T20:24:20.736Z,2.97
2022-08-17T20:27:14.299Z,3.30
2022-08-17T20:30:08.125Z,3.38
2022-08-17T20:32:56.244Z,3.20
2022-08-17T20:35:28.846Z,3.10
2022-08-17T20:38:05.703Z,3.25
2022-08-17T20:40:40.358Z,3.38
2022-08-17T20:43:35.341Z,2.90
2022-08-17T20:46:11.723Z,3.05
2022-08-17T20:48:45.664Z,3.00
2022-08-17T20:51:27.297Z,3.30
2022-08-17T20:53:54.621Z,3.28
2022-08-17T20:56:43.590Z,2.83
2022-08-17T20:59:26.059Z,3.10
2022-08-17T21:02:18.382Z,3.30
2022-08-17T21:04:54.992Z,3.10
2022-08-17T21:07:43.202Z,3.13
2022-08-17T21:10:25.904Z,3.33
2022-08-17T21:12:56.269Z,3.10
2022-08-17T21:15:31.093Z,3.13
2022-08-17T21:18:38.969Z,3.13
2022-08-17T21:21:24.221Z,3.00
2022-08-17T21:24:05.602Z,3.25
2022-08-17T21:26:50.756Z,3.17
2022-08-17T21:29:31.397Z,3.22
2022-08-17T21:32:03.336Z,3.28
2022-08-17T21:34:43.621Z,3.20
2022-08-17T21:37:34.951Z,3.45
2022-08-17T21:40:12.431Z,3.08
2022-08-17T21:42:49.541Z,3.17
2022-08-17T21:45:22.672Z,3.20
2022-08-17T21:48:07.092Z,3.15
2022-08-17T21:50:35.769Z,3.47
2022-08-17T21:53:05.108Z,3.00
2022-08-17T21:55:34.203Z,3.40
2022-08-17T21:58:19.322Z,3.47
2022-08-17T22:00:46.489Z,3.10
2022-08-17T22:03:26.255Z,3.20
2022-08-17T22:05:53.352Z,3.20
2022-08-17T22:08:25.281Z,3.28
2022-08-17T22:11:01.799Z,3.38
2022-08-17T22:13:29.588Z,3.20
2022-08-17T22:16:15.481Z,3.30
2022-08-17T22:18:58.987Z,3.17
2022-08-17T22:21:27.058Z,3.30
2022-08-17T22:24:06.270Z,3.20
2022-08-17T22:27:01.219Z,3.30
2022-08-17T22:29:58.698Z,3.00
2022-08-17T22:32:37.723Z,3.30
2022-08-17T22:35:39.263Z,3.30
2022-08-17T22:38:21.342Z,3.28
2022-08-17T22:40:51.908Z,3.50
2022-08-17T22:43:26.288Z,3.17
2022-08-17T22:45:57.591Z,3.30
2022-08-17T22:48:28.293Z,3.22
2022-08-17T22:51:13.971Z,3.10
2022-08-17T22:54:09.265Z,3.30
2022-08-17T22:56:55.708Z,3.58
2022-08-17T22:59:46.801Z,3.03
2022-08-17T23:02:19.701Z,3.17
2022-08-17T23:04:57.578Z,3.50
2022-08-17T23:07:24.724Z,3.15
2022-08-17T23:09:52.696Z,3.58
2022-08-17T23:12:26.345Z,3.53
2022-08-17T23:14:58.527Z,3.30
2022-08-17T23:17:25.590Z,3.10
2022-08-17T23:19:53.170Z,3.10
2022-08-17T23:22:20.292Z,3.50
2022-08-17T23:24:51.498Z,3.65
2022-08-17T23:27:20.650Z,3.30
2022-08-17T23:29:48.784Z,3.63
2022-08-17T23:32:18.012Z,3.20
2022-08-17T23:34:47.820Z,3.40
2022-08-17T23:37:15.590Z,3.70
2022-08-17T23:39:45.148Z,3.30
2022-08-17T23:42:16.418Z,3.63
2022-08-17T23:44:44.007Z,3.30
2022-08-17T23:47:11.640Z,3.60
2022-08-17T23:49:40.379Z,3.47
2022-08-17T23:52:12.666Z,3.20
2022-08-17T23:54:46.657Z,3.28
2022-08-17T23:57:17.316Z,3.30
2022-08-17T23:59:44.720Z,3.50
